Terminal Aerodrome Forecast
Issued by NWS Louisville, KY

Home | Current Version | Previous Version | Text Only | Print | Product List | Glossary On
Versions: 1 2 3 4 5 6 7 8 9 10 11 12 13 14 15 16 17 18 19
000
FTUS43 KLMK 211700
TAFBWG
TAF
KBWG 211730Z 2118/2218 24009KT P6SM FEW040 SCT200
     FM220100 VRB03KT P6SM SCT250
     FM221600 25007KT P6SM FEW050 SCT250=

USA.gov is the U.S. government's official web portal to all federal, state and local government web resources and services.